createdAt,value
2022-09-22T00:01:33.897Z,9.50
2022-09-22T00:04:06.004Z,9.50
2022-09-22T00:06:37.055Z,9.40
2022-09-22T00:09:08.053Z,9.40
2022-09-22T00:11:37.752Z,9.40
2022-09-22T00:14:09.121Z,9.40
2022-09-22T00:16:39.452Z,9.30
2022-09-22T00:19:07.775Z,9.30
2022-09-22T00:21:35.815Z,9.30
2022-09-22T00:24:07.216Z,9.30
2022-09-22T00:26:35.970Z,9.30
2022-09-22T00:29:04.837Z,9.30
2022-09-22T00:31:32.821Z,9.30
2022-09-22T00:34:00.830Z,9.30
2022-09-22T00:36:29.457Z,9.30
2022-09-22T00:38:59.313Z,9.30
2022-09-22T00:41:30.643Z,9.30
2022-09-22T00:44:30.189Z,9.40
2022-09-22T00:47:04.222Z,9.40
2022-09-22T00:49:39.275Z,9.40
2022-09-22T00:52:07.995Z,9.50
2022-09-22T00:54:36.304Z,9.50
2022-09-22T00:57:09.181Z,9.50
2022-09-22T00:59:38.123Z,9.50
2022-09-22T01:02:06.256Z,9.50
2022-09-22T01:04:34.408Z,9.50
2022-09-22T01:07:03.589Z,9.50
2022-09-22T01:09:33.190Z,9.50
2022-09-22T01:12:01.736Z,9.60
2022-09-22T01:14:43.839Z,9.60
2022-09-22T01:17:18.877Z,9.60
2022-09-22T01:20:12.282Z,9.60
2022-09-22T01:22:57.702Z,9.60
2022-09-22T01:25:48.092Z,9.60
2022-09-22T01:28:42.940Z,9.60
2022-09-22T01:31:18.686Z,9.60
2022-09-22T01:33:52.972Z,9.60
2022-09-22T01:36:26.871Z,9.60
2022-09-22T01:39:03.983Z,9.70
2022-09-22T01:41:51.657Z,9.60
2022-09-22T01:44:27.020Z,9.60
2022-09-22T01:47:02.235Z,9.70
2022-09-22T01:49:33.504Z,9.60
2022-09-22T01:52:04.572Z,9.60
2022-09-22T01:54:35.461Z,9.70
2022-09-22T01:57:11.218Z,9.70
2022-09-22T01:59:43.169Z,9.70
2022-09-22T02:02:18.087Z,9.80
2022-09-22T02:04:49.116Z,9.80
2022-09-22T02:07:24.738Z,9.90
2022-09-22T02:09:53.884Z,9.90
2022-09-22T02:12:21.883Z,9.90
2022-09-22T02:14:50.998Z,9.90
2022-09-22T02:17:21.067Z,9.90
2022-09-22T02:19:49.056Z,9.90
2022-09-22T02:22:17.472Z,9.80
2022-09-22T02:24:47.749Z,9.80
2022-09-22T02:27:25.481Z,9.80
2022-09-22T02:29:58.891Z,9.90
2022-09-22T02:32:29.357Z,9.80
2022-09-22T02:34:58.001Z,9.90
2022-09-22T02:37:34.727Z,9.90
2022-09-22T02:40:10.060Z,9.90
2022-09-22T02:42:43.305Z,9.90
2022-09-22T02:45:16.221Z,9.90
2022-09-22T02:47:51.959Z,9.90
2022-09-22T02:50:23.729Z,10.00
2022-09-22T02:52:53.601Z,10.00
2022-09-22T02:55:21.670Z,9.90
2022-09-22T02:57:49.735Z,9.90
2022-09-22T03:00:17.759Z,9.80
2022-09-22T03:02:47.099Z,9.80
2022-09-22T03:05:15.223Z,9.80
2022-09-22T03:07:43.220Z,9.90
2022-09-22T03:10:11.908Z,9.90
2022-09-22T03:13:02.476Z,9.90
2022-09-22T03:15:30.628Z,9.90
2022-09-22T03:18:00.022Z,9.90
2022-09-22T03:20:28.118Z,9.90
2022-09-22T03:22:56.177Z,9.90
2022-09-22T03:25:24.135Z,9.90
2022-09-22T03:27:52.107Z,9.90
2022-09-22T03:30:20.358Z,9.90
2022-09-22T03:32:48.308Z,9.90
2022-09-22T03:35:17.884Z,9.90
2022-09-22T03:37:46.770Z,9.90
2022-09-22T03:40:14.986Z,10.00
2022-09-22T03:42:43.195Z,9.90
2022-09-22T03:45:13.040Z,9.90
2022-09-22T03:47:41.061Z,9.80
2022-09-22T03:50:09.928Z,9.90
2022-09-22T03:52:40.119Z,9.90
2022-09-22T03:55:09.394Z,9.90
2022-09-22T03:57:37.407Z,10.00
2022-09-22T04:00:06.389Z,9.90
2022-09-22T04:02:34.411Z,9.90
2022-09-22T04:05:02.460Z,9.90
2022-09-22T04:07:30.454Z,10.00
2022-09-22T04:09:59.770Z,10.00
2022-09-22T04:12:27.714Z,9.90
2022-09-22T04:14:55.654Z,9.90
2022-09-22T04:17:23.625Z,9.90
2022-09-22T04:19:51.619Z,9.90
2022-09-22T04:22:19.574Z,9.90
2022-09-22T04:24:47.529Z,9.80
2022-09-22T04:27:20.873Z,9.90
2022-09-22T04:29:49.609Z,10.00
2022-09-22T04:32:18.369Z,10.00
2022-09-22T04:34:46.316Z,10.10
2022-09-22T04:37:14.619Z,10.00
2022-09-22T04:39:42.819Z,10.00
2022-09-22T04:42:10.831Z,10.10
2022-09-22T04:44:40.140Z,10.00
2022-09-22T04:47:08.296Z,10.00
2022-09-22T04:49:36.250Z,10.00
2022-09-22T04:52:04.424Z,9.90
2022-09-22T04:54:32.528Z,10.00
2022-09-22T04:57:00.569Z,10.00
2022-09-22T04:59:29.580Z,10.00
2022-09-22T05:01:58.931Z,9.90
2022-09-22T05:04:26.885Z,10.10
2022-09-22T05:06:54.941Z,10.00
2022-09-22T05:09:22.927Z,10.00
2022-09-22T05:11:50.884Z,10.10
2022-09-22T05:14:24.078Z,10.10
2022-09-22T05:16:54.230Z,9.90
2022-09-22T05:19:23.646Z,9.90
2022-09-22T05:21:52.064Z,9.70
2022-09-22T05:24:20.031Z,9.70
2022-09-22T05:26:48.247Z,9.90
2022-09-22T05:29:18.274Z,10.00
2022-09-22T05:31:46.430Z,10.10
2022-09-22T05:34:14.493Z,10.10
2022-09-22T05:36:43.809Z,10.00
2022-09-22T05:39:11.784Z,10.00
2022-09-22T05:41:39.789Z,10.00
2022-09-22T05:44:07.807Z,10.00
2022-09-22T05:46:35.753Z,10.00
2022-09-22T05:49:03.715Z,10.00
2022-09-22T05:51:31.646Z,10.00
2022-09-22T05:54:01.022Z,10.10
2022-09-22T05:56:29.137Z,10.10
2022-09-22T05:58:57.055Z,10.10
2022-09-22T06:01:25.199Z,10.30
2022-09-22T06:03:53.247Z,10.30
2022-09-22T06:06:21.204Z,10.40
2022-09-22T06:08:49.385Z,10.30
2022-09-22T06:11:18.826Z,10.20
2022-09-22T06:13:48.592Z,10.40
2022-09-22T06:16:16.602Z,10.50
2022-09-22T06:18:46.726Z,10.50
2022-09-22T06:21:14.751Z,10.60
2022-09-22T06:23:43.134Z,10.50
2022-09-22T06:26:11.129Z,10.70
2022-09-22T06:28:40.432Z,10.90
2022-09-22T06:31:08.344Z,11.00
2022-09-22T06:33:36.652Z,10.80
2022-09-22T06:36:07.984Z,10.70
2022-09-22T06:38:35.959Z,10.90
2022-09-22T06:41:06.856Z,11.00
2022-09-22T06:43:37.808Z,11.00
2022-09-22T06:46:12.116Z,11.30
2022-09-22T06:48:40.319Z,11.60
2022-09-22T06:51:11.178Z,11.60
2022-09-22T06:53:40.585Z,11.40
2022-09-22T06:56:08.985Z,11.50
2022-09-22T06:58:58.586Z,11.60
2022-09-22T07:01:31.165Z,11.60
2022-09-22T07:03:59.244Z,11.70
2022-09-22T07:06:27.249Z,11.80
2022-09-22T07:08:55.217Z,11.70
2022-09-22T07:11:23.798Z,11.70
2022-09-22T07:13:53.505Z,11.80
2022-09-22T07:16:23.132Z,11.80
2022-09-22T07:18:53.673Z,11.90
2022-09-22T07:21:22.754Z,12.00
2022-09-22T07:23:52.789Z,12.20
2022-09-22T07:26:22.406Z,12.40
2022-09-22T07:28:54.020Z,12.30
2022-09-22T07:31:28.370Z,12.30
2022-09-22T07:34:00.388Z,12.30
2022-09-22T07:36:29.957Z,12.30
2022-09-22T07:38:59.797Z,12.20
2022-09-22T07:41:29.264Z,11.90
2022-09-22T07:44:20.757Z,11.90
2022-09-22T07:46:48.772Z,11.70
2022-09-22T07:49:19.669Z,11.40
2022-09-22T07:51:47.615Z,11.60
2022-09-22T07:54:15.610Z,11.90
2022-09-22T07:56:46.774Z,11.90
2022-09-22T07:59:16.775Z,12.10
2022-09-22T08:01:47.741Z,12.50
2022-09-22T08:04:18.967Z,12.60
2022-09-22T08:06:48.730Z,12.70
2022-09-22T08:09:18.319Z,12.90
2022-09-22T08:11:48.835Z,13.00
2022-09-22T08:14:18.688Z,13.30
2022-09-22T08:16:46.926Z,13.60
2022-09-22T08:19:15.700Z,13.70
2022-09-22T08:21:49.330Z,13.80
2022-09-22T08:24:21.870Z,13.90
2022-09-22T08:26:52.460Z,13.60
2022-09-22T08:29:21.051Z,13.40
2022-09-22T08:31:51.437Z,13.40
2022-09-22T08:34:22.466Z,13.60
2022-09-22T08:36:58.803Z,13.80
2022-09-22T08:39:26.754Z,13.70
2022-09-22T08:42:11.919Z,13.70
2022-09-22T08:44:46.591Z,13.90
2022-09-22T08:47:39.459Z,14.10
2022-09-22T08:50:42.835Z,14.00
2022-09-22T08:53:16.194Z,13.90
2022-09-22T08:55:48.223Z,13.70
2022-09-22T08:58:32.598Z,13.80
2022-09-22T09:01:12.739Z,14.00
2022-09-22T09:03:55.325Z,14.40
2022-09-22T09:06:33.925Z,14.30
2022-09-22T09:09:22.169Z,14.40
2022-09-22T09:12:06.048Z,14.50
2022-09-22T09:15:01.375Z,14.40
2022-09-22T09:17:31.573Z,14.50
2022-09-22T09:20:04.783Z,14.60
2022-09-22T09:22:43.690Z,14.90
2022-09-22T09:25:23.325Z,15.20
2022-09-22T09:27:57.206Z,15.40
2022-09-22T09:30:25.327Z,15.60
2022-09-22T09:32:56.420Z,16.00
2022-09-22T09:35:28.506Z,15.80
2022-09-22T09:37:59.155Z,15.60
2022-09-22T09:40:29.006Z,15.70
2022-09-22T09:43:03.262Z,15.50
2022-09-22T09:45:38.370Z,15.50
2022-09-22T09:48:20.373Z,15.60
2022-09-22T09:50:48.342Z,16.00
2022-09-22T09:53:31.247Z,16.60
2022-09-22T09:56:00.611Z,16.60
2022-09-22T09:58:46.241Z,16.50
2022-09-22T10:04:33.255Z,15.40
2022-09-22T10:07:12.910Z,14.80
2022-09-22T10:09:41.517Z,14.80
2022-09-22T10:12:23.633Z,15.70
2022-09-22T10:14:52.851Z,16.80
2022-09-22T10:17:22.767Z,16.50
2022-09-22T10:19:51.701Z,16.90
2022-09-22T10:22:28.286Z,17.20
2022-09-22T10:25:01.443Z,16.30
2022-09-22T10:27:32.595Z,15.90
2022-09-22T10:30:37.189Z,15.80
2022-09-22T10:33:15.435Z,16.30
2022-09-22T10:35:45.634Z,16.50
2022-09-22T10:38:24.759Z,16.40
2022-09-22T10:40:57.896Z,15.60
2022-09-22T10:43:44.110Z,15.30
2022-09-22T10:46:45.310Z,15.00
2022-09-22T10:49:21.211Z,15.30
2022-09-22T10:52:05.300Z,15.80
2022-09-22T10:54:50.295Z,15.90
2022-09-22T10:57:33.753Z,15.80
2022-09-22T11:00:12.325Z,15.70
2022-09-22T11:03:06.543Z,15.40
2022-09-22T11:06:01.385Z,15.00
2022-09-22T11:08:53.356Z,14.80
2022-09-22T11:11:45.351Z,14.70
2022-09-22T11:14:27.889Z,14.70
2022-09-22T11:17:17.794Z,14.50
2022-09-22T11:20:08.865Z,14.40
2022-09-22T11:22:58.933Z,14.10
2022-09-22T11:25:43.399Z,14.20
2022-09-22T11:28:35.936Z,14.20
2022-09-22T11:31:04.012Z,14.50
2022-09-22T11:34:12.260Z,14.70
2022-09-22T11:36:51.565Z,15.00
2022-09-22T11:39:22.066Z,15.30
2022-09-22T11:42:01.175Z,15.30
2022-09-22T11:44:36.849Z,15.30
2022-09-22T11:47:41.591Z,15.50
2022-09-22T11:50:27.544Z,15.40
2022-09-22T11:53:09.509Z,15.60
2022-09-22T11:55:40.977Z,15.50
2022-09-22T11:58:16.217Z,15.30
2022-09-22T12:00:48.674Z,15.10
2022-09-22T12:03:21.327Z,14.90
2022-09-22T12:05:54.993Z,14.40
2022-09-22T12:08:26.791Z,13.60
2022-09-22T12:10:55.298Z,12.90
2022-09-22T12:13:26.402Z,12.50
2022-09-22T12:18:41.663Z,12.30
2022-09-22T12:21:25.466Z,12.40
2022-09-22T12:23:56.121Z,12.40
2022-09-22T12:26:28.442Z,12.50
2022-09-22T12:28:58.808Z,12.50
2022-09-22T12:31:36.039Z,12.60
2022-09-22T12:34:06.790Z,12.70
2022-09-22T12:36:38.263Z,12.70
2022-09-22T12:39:13.302Z,12.70
2022-09-22T12:41:48.023Z,12.60
2022-09-22T12:44:21.127Z,12.50
2022-09-22T12:46:50.294Z,12.50
2022-09-22T12:49:22.537Z,12.50
2022-09-22T12:51:52.452Z,12.50
2022-09-22T12:54:47.894Z,12.50
2022-09-22T12:57:31.323Z,12.90
2022-09-22T13:00:23.124Z,13.10
2022-09-22T13:02:51.603Z,13.40
2022-09-22T13:05:46.530Z,13.50
2022-09-22T13:08:24.094Z,13.70
2022-09-22T13:11:01.150Z,13.80
2022-09-22T13:13:41.106Z,13.70
2022-09-22T13:16:34.562Z,13.60
2022-09-22T13:19:03.549Z,13.50
2022-09-22T13:21:33.415Z,13.50
2022-09-22T13:24:05.082Z,13.50
2022-09-22T13:26:34.889Z,13.50
2022-09-22T13:29:11.390Z,13.50
2022-09-22T13:31:44.609Z,13.50
2022-09-22T13:34:26.523Z,13.30
2022-09-22T13:36:58.223Z,13.30
2022-09-22T13:39:30.774Z,13.40
2022-09-22T13:42:04.534Z,13.40
2022-09-22T13:44:35.848Z,13.50
2022-09-22T13:47:08.217Z,13.60
2022-09-22T13:49:42.244Z,13.50
2022-09-22T13:52:16.323Z,13.60
2022-09-22T13:54:49.545Z,13.50
2022-09-22T13:57:22.392Z,13.30
2022-09-22T13:59:52.590Z,13.30
2022-09-22T14:02:28.092Z,13.20
2022-09-22T14:05:01.605Z,13.20
2022-09-22T14:07:38.342Z,13.20
2022-09-22T14:10:19.358Z,13.30
2022-09-22T14:12:47.431Z,13.50
2022-09-22T14:15:39.699Z,13.80
2022-09-22T14:18:18.877Z,13.90
2022-09-22T14:20:47.732Z,14.00
2022-09-22T14:23:27.941Z,14.20
2022-09-22T14:25:58.802Z,14.30
2022-09-22T14:28:29.697Z,14.40
2022-09-22T14:30:57.864Z,14.60
2022-09-22T14:33:27.696Z,14.70
2022-09-22T14:36:01.760Z,14.80
2022-09-22T14:38:34.380Z,14.80
2022-09-22T14:41:04.341Z,14.80
2022-09-22T14:43:37.857Z,14.70
2022-09-22T14:46:24.603Z,14.80
2022-09-22T14:48:52.893Z,14.70
2022-09-22T14:51:23.016Z,14.60
2022-09-22T14:53:55.427Z,14.50
2022-09-22T14:56:28.919Z,14.50
2022-09-22T14:59:00.149Z,14.50
2022-09-22T15:01:49.784Z,14.60
2022-09-22T15:04:23.139Z,14.60
2022-09-22T15:06:52.678Z,14.50
2022-09-22T15:09:25.883Z,14.40
2022-09-22T15:11:56.938Z,14.30
2022-09-22T15:14:35.301Z,14.30
2022-09-22T15:17:17.527Z,14.20
2022-09-22T15:19:45.496Z,14.10
2022-09-22T15:22:15.060Z,14.10
2022-09-22T15:24:43.097Z,14.10
2022-09-22T15:27:17.714Z,14.10
2022-09-22T15:29:45.768Z,14.10
2022-09-22T15:32:14.187Z,14.10
2022-09-22T15:34:44.759Z,14.10
2022-09-22T15:37:15.657Z,14.00
2022-09-22T15:39:43.763Z,14.00
2022-09-22T15:42:12.300Z,13.90
2022-09-22T15:44:42.030Z,13.90
2022-09-22T15:47:16.576Z,13.90
2022-09-22T15:49:45.122Z,13.90
2022-09-22T15:52:14.301Z,13.80
2022-09-22T15:54:44.156Z,13.90
2022-09-22T15:57:14.931Z,13.90
2022-09-22T15:59:44.310Z,13.80
2022-09-22T16:02:12.910Z,13.80
2022-09-22T16:04:40.856Z,13.70
2022-09-22T16:07:12.397Z,13.60
2022-09-22T16:09:40.494Z,13.60
2022-09-22T16:12:11.065Z,13.60
2022-09-22T16:14:39.908Z,13.50
2022-09-22T16:17:09.212Z,13.40
2022-09-22T16:19:37.160Z,13.40
2022-09-22T16:22:05.898Z,13.30
2022-09-22T16:24:33.915Z,13.30
2022-09-22T16:27:06.033Z,13.20
2022-09-22T16:29:37.395Z,13.20
2022-09-22T16:32:05.571Z,13.10
2022-09-22T16:34:35.986Z,13.10
2022-09-22T16:37:04.062Z,13.00
2022-09-22T16:39:32.021Z,13.00
2022-09-22T16:41:59.971Z,13.00
2022-09-22T16:44:27.958Z,12.90
2022-09-22T16:46:56.483Z,12.80
2022-09-22T16:49:25.068Z,12.80
2022-09-22T16:51:55.102Z,12.60
2022-09-22T16:54:24.704Z,12.60
2022-09-22T16:56:53.859Z,12.40
2022-09-22T16:59:24.129Z,12.40
2022-09-22T17:01:52.395Z,12.30
2022-09-22T17:04:20.791Z,12.20
2022-09-22T17:06:49.587Z,12.20
2022-09-22T17:09:19.374Z,12.20
2022-09-22T17:11:49.193Z,12.10
2022-09-22T17:14:21.090Z,12.00
2022-09-22T17:16:52.047Z,11.90
2022-09-22T17:19:22.114Z,11.90
2022-09-22T17:21:52.780Z,11.80
2022-09-22T17:24:22.997Z,11.80
2022-09-22T17:26:53.197Z,11.80
2022-09-22T17:29:23.404Z,11.80
2022-09-22T17:31:52.127Z,11.70
2022-09-22T17:34:20.079Z,11.70
2022-09-22T17:36:48.017Z,11.80
2022-09-22T17:39:15.956Z,11.80
2022-09-22T17:41:47.011Z,11.80
2022-09-22T17:44:17.030Z,12.00
2022-09-22T17:46:58.926Z,11.90
2022-09-22T17:49:44.189Z,12.00
2022-09-22T17:52:30.072Z,11.90
2022-09-22T17:55:08.185Z,11.90
2022-09-22T17:57:39.190Z,12.00
2022-09-22T18:00:09.535Z,11.90
2022-09-22T18:02:38.823Z,11.90
2022-09-22T18:05:08.079Z,12.00
2022-09-22T18:07:38.218Z,12.00
2022-09-22T18:10:07.031Z,12.00
2022-09-22T18:12:35.584Z,11.90
2022-09-22T18:15:05.800Z,11.90
2022-09-22T18:17:41.525Z,11.80
2022-09-22T18:20:11.818Z,11.80
2022-09-22T18:22:40.176Z,11.70
2022-09-22T18:25:10.505Z,11.70
2022-09-22T18:27:40.086Z,11.70
2022-09-22T18:30:14.239Z,11.50
2022-09-22T18:32:43.993Z,11.50
2022-09-22T18:35:12.970Z,11.50
2022-09-22T18:37:41.750Z,11.50
2022-09-22T18:40:12.459Z,11.50
2022-09-22T18:42:41.509Z,11.60
2022-09-22T18:45:12.503Z,11.50
2022-09-22T18:47:40.928Z,11.50
2022-09-22T18:50:10.122Z,11.60
2022-09-22T18:52:42.598Z,11.60
2022-09-22T18:55:17.263Z,11.60
2022-09-22T18:57:47.389Z,11.60
2022-09-22T19:00:20.871Z,11.60
2022-09-22T19:02:49.123Z,11.60
2022-09-22T19:05:17.406Z,11.50
2022-09-22T19:07:47.730Z,11.50
2022-09-22T19:10:20.526Z,11.50
2022-09-22T19:12:48.636Z,11.50
2022-09-22T19:15:19.435Z,11.50
2022-09-22T19:17:49.612Z,11.50
2022-09-22T19:20:21.045Z,11.50
2022-09-22T19:22:50.515Z,11.40
2022-09-22T19:25:20.074Z,11.30
2022-09-22T19:27:48.073Z,11.20
2022-09-22T19:30:21.816Z,11.20
2022-09-22T19:32:51.073Z,11.20
2022-09-22T19:35:19.593Z,11.20
2022-09-22T19:37:47.566Z,11.20
2022-09-22T19:40:18.667Z,11.20
2022-09-22T19:42:47.683Z,11.10
2022-09-22T19:45:17.162Z,11.10
2022-09-22T19:47:45.103Z,11.10
2022-09-22T19:50:13.195Z,11.00
2022-09-22T19:52:41.136Z,11.00
2022-09-22T19:55:11.516Z,11.00
2022-09-22T19:57:41.329Z,11.00
2022-09-22T20:00:10.821Z,10.90
2022-09-22T20:02:40.157Z,10.80
2022-09-22T20:05:19.001Z,10.80
2022-09-22T20:07:46.935Z,10.80
2022-09-22T20:10:15.035Z,10.80
2022-09-22T20:12:42.998Z,10.70
2022-09-22T20:15:14.888Z,10.70
2022-09-22T20:17:45.998Z,10.70
2022-09-22T20:20:14.665Z,10.70
2022-09-22T20:22:42.747Z,10.60
2022-09-22T20:25:22.517Z,10.60
2022-09-22T20:27:50.972Z,10.70
2022-09-22T20:30:19.315Z,10.60
2022-09-22T20:32:48.982Z,10.60
2022-09-22T20:35:19.106Z,10.60
2022-09-22T20:37:47.267Z,10.60
2022-09-22T20:40:18.637Z,10.60
2022-09-22T20:42:47.009Z,10.60
2022-09-22T20:45:15.443Z,10.60
2022-09-22T20:47:43.532Z,10.70
2022-09-22T20:50:13.381Z,10.70
2022-09-22T20:52:42.506Z,10.70
2022-09-22T20:55:11.728Z,10.70
2022-09-22T20:57:40.328Z,10.70
2022-09-22T21:00:09.914Z,10.70
2022-09-22T21:02:38.864Z,10.70
2022-09-22T21:05:07.288Z,10.70
2022-09-22T21:07:36.763Z,10.80
2022-09-22T21:10:22.844Z,10.70
2022-09-22T21:12:55.001Z,10.70
2022-09-22T21:15:23.318Z,10.70
2022-09-22T21:17:52.718Z,10.70
2022-09-22T21:20:21.624Z,10.80
2022-09-22T21:22:52.280Z,10.70
2022-09-22T21:25:20.397Z,10.70
2022-09-22T21:27:48.521Z,10.70
2022-09-22T21:30:16.753Z,10.70
2022-09-22T21:32:45.047Z,10.80
2022-09-22T21:35:16.750Z,10.80
2022-09-22T21:37:45.107Z,10.80
2022-09-22T21:40:14.758Z,10.80
2022-09-22T21:42:42.867Z,10.80
2022-09-22T21:45:12.938Z,10.70
2022-09-22T21:47:41.043Z,10.70
2022-09-22T21:50:10.118Z,10.70
2022-09-22T21:52:38.574Z,10.70
2022-09-22T21:55:07.712Z,10.70
2022-09-22T21:57:37.072Z,10.60
2022-09-22T22:00:07.105Z,10.60
2022-09-22T22:02:55.062Z,10.60
2022-09-22T22:05:23.006Z,10.60
2022-09-22T22:07:51.049Z,10.70
2022-09-22T22:10:19.206Z,10.70
2022-09-22T22:12:48.551Z,10.70
2022-09-22T22:15:16.619Z,10.70
2022-09-22T22:17:44.631Z,10.60
2022-09-22T22:20:12.587Z,10.60
2022-09-22T22:22:40.532Z,10.50
2022-09-22T22:25:13.706Z,10.50
2022-09-22T22:27:44.659Z,10.50
2022-09-22T22:30:14.593Z,10.50
2022-09-22T22:32:43.131Z,10.60
2022-09-22T22:35:11.688Z,10.50
2022-09-22T22:37:39.945Z,10.40
2022-09-22T22:40:08.848Z,10.50
2022-09-22T22:42:36.880Z,10.40
2022-09-22T22:45:06.565Z,10.40
2022-09-22T22:47:35.892Z,10.40
2022-09-22T22:50:03.826Z,10.40
2022-09-22T22:52:31.783Z,10.40
2022-09-22T22:54:59.731Z,10.40
2022-09-22T22:57:28.623Z,10.50
2022-09-22T22:59:57.123Z,10.50
2022-09-22T23:02:25.681Z,10.50
2022-09-22T23:04:58.646Z,10.50
2022-09-22T23:07:26.658Z,10.50
2022-09-22T23:10:06.282Z,10.60
2022-09-22T23:12:35.142Z,10.50
2022-09-22T23:15:03.290Z,10.50
2022-09-22T23:17:32.034Z,10.60
2022-09-22T23:20:01.358Z,10.50
2022-09-22T23:22:30.592Z,10.50
2022-09-22T23:24:58.723Z,10.50
2022-09-22T23:27:27.193Z,10.50
2022-09-22T23:29:57.199Z,10.50
2022-09-22T23:32:25.588Z,10.50
2022-09-22T23:34:53.782Z,10.50
2022-09-22T23:37:24.834Z,10.50
2022-09-22T23:39:53.107Z,10.50
2022-09-22T23:42:21.076Z,10.50
2022-09-22T23:44:49.140Z,10.50
2022-09-22T23:47:17.147Z,10.50
2022-09-22T23:49:45.721Z,10.50
2022-09-22T23:52:13.696Z,10.50
2022-09-22T23:54:44.274Z,10.60
2022-09-22T23:57:12.230Z,10.50
2022-09-22T23:59:40.180Z,10.50
